sensor_id;sensor_type;location;lat;lon;timestamp;P1;durP1;ratioP1;P2;durP2;ratioP2
44784;SDS011;30507;53.160;8.210;2023-04-15T00:00:46;0.52;;;0.38;;
44784;SDS011;30507;53.160;8.210;2023-04-15T00:03:11;0.40;;;0.40;;
44784;SDS011;30507;53.160;8.210;2023-04-15T00:05:37;0.40;;;0.40;;
44784;SDS011;30507;53.160;8.210;2023-04-15T00:08:02;0.28;;;0.28;;
44784;SDS011;30507;53.160;8.210;2023-04-15T00:10:27;0.40;;;0.40;;
44784;SDS011;30507;53.160;8.210;2023-04-15T00:12:52;0.63;;;0.40;;
44784;SDS011;30507;53.160;8.210;2023-04-15T00:15:18;0.65;;;0.52;;
44784;SDS011;30507;53.160;8.210;2023-04-15T00:17:43;0.30;;;0.30;;
44784;SDS011;30507;53.160;8.210;2023-04-15T00:20:08;0.50;;;0.50;;
44784;SDS011;30507;53.160;8.210;2023-04-15T00:22:34;0.60;;;0.60;;
44784;SDS011;30507;53.160;8.210;2023-04-15T00:24:59;0.20;;;0.20;;
44784;SDS011;30507;53.160;8.210;2023-04-15T00:27:25;0.50;;;0.50;;
44784;SDS011;30507;53.160;8.210;2023-04-15T00:29:50;0.28;;;0.28;;
44784;SDS011;30507;53.160;8.210;2023-04-15T00:32:15;0.50;;;0.50;;
44784;SDS011;30507;53.160;8.210;2023-04-15T00:34:40;0.70;;;0.70;;
44784;SDS011;30507;53.160;8.210;2023-04-15T00:37:06;0.30;;;0.30;;
44784;SDS011;30507;53.160;8.210;2023-04-15T00:39:31;0.30;;;0.30;;
44784;SDS011;30507;53.160;8.210;2023-04-15T00:41:56;0.70;;;0.70;;
44784;SDS011;30507;53.160;8.210;2023-04-15T00:44:21;0.20;;;0.20;;
44784;SDS011;30507;53.160;8.210;2023-04-15T00:46:47;0.40;;;0.40;;
44784;SDS011;30507;53.160;8.210;2023-04-15T00:49:13;0.40;;;0.40;;
44784;SDS011;30507;53.160;8.210;2023-04-15T00:51:38;0.40;;;0.40;;
44784;SDS011;30507;53.160;8.210;2023-04-15T00:54:03;0.37;;;0.37;;
44784;SDS011;30507;53.160;8.210;2023-04-15T00:56:29;0.80;;;0.73;;
44784;SDS011;30507;53.160;8.210;2023-04-15T00:58:54;0.55;;;0.43;;
44784;SDS011;30507;53.160;8.210;2023-04-15T01:01:20;0.60;;;0.60;;
44784;SDS011;30507;53.160;8.210;2023-04-15T01:03:45;0.30;;;0.30;;
44784;SDS011;30507;53.160;8.210;2023-04-15T01:06:10;0.13;;;0.13;;
44784;SDS011;30507;53.160;8.210;2023-04-15T01:08:36;0.30;;;0.30;;
44784;SDS011;30507;53.160;8.210;2023-04-15T01:11:01;0.60;;;0.60;;
44784;SDS011;30507;53.160;8.210;2023-04-15T01:13:27;0.45;;;0.45;;
44784;SDS011;30507;53.160;8.210;2023-04-15T01:15:53;0.55;;;0.50;;
44784;SDS011;30507;53.160;8.210;2023-04-15T01:18:20;0.27;;;0.27;;
44784;SDS011;30507;53.160;8.210;2023-04-15T01:20:46;0.52;;;0.45;;
44784;SDS011;30507;53.160;8.210;2023-04-15T01:23:11;0.37;;;0.37;;
44784;SDS011;30507;53.160;8.210;2023-04-15T01:25:37;0.30;;;0.30;;
44784;SDS011;30507;53.160;8.210;2023-04-15T01:28:02;0.37;;;0.37;;
44784;SDS011;30507;53.160;8.210;2023-04-15T01:30:27;0.47;;;0.47;;
44784;SDS011;30507;53.160;8.210;2023-04-15T01:32:53;0.28;;;0.22;;
44784;SDS011;30507;53.160;8.210;2023-04-15T01:35:18;0.30;;;0.30;;
44784;SDS011;30507;53.160;8.210;2023-04-15T01:37:43;0.30;;;0.30;;
44784;SDS011;30507;53.160;8.210;2023-04-15T01:40:09;0.50;;;0.50;;
44784;SDS011;30507;53.160;8.210;2023-04-15T01:42:34;0.53;;;0.53;;
44784;SDS011;30507;53.160;8.210;2023-04-15T01:45:00;0.35;;;0.30;;
44784;SDS011;30507;53.160;8.210;2023-04-15T01:47:25;0.30;;;0.30;;
44784;SDS011;30507;53.160;8.210;2023-04-15T01:49:51;0.40;;;0.40;;
44784;SDS011;30507;53.160;8.210;2023-04-15T01:52:16;0.40;;;0.40;;
44784;SDS011;30507;53.160;8.210;2023-04-15T01:54:42;0.60;;;0.60;;
44784;SDS011;30507;53.160;8.210;2023-04-15T01:57:07;0.40;;;0.40;;
44784;SDS011;30507;53.160;8.210;2023-04-15T01:59:32;0.30;;;0.30;;
44784;SDS011;30507;53.160;8.210;2023-04-15T02:01:57;0.57;;;0.47;;
44784;SDS011;30507;53.160;8.210;2023-04-15T02:04:23;0.60;;;0.60;;
44784;SDS011;30507;53.160;8.210;2023-04-15T02:06:49;0.57;;;0.57;;
44784;SDS011;30507;53.160;8.210;2023-04-15T02:09:14;0.40;;;0.40;;
44784;SDS011;30507;53.160;8.210;2023-04-15T02:11:39;0.90;;;0.90;;
44784;SDS011;30507;53.160;8.210;2023-04-15T02:14:04;0.35;;;0.35;;
44784;SDS011;30507;53.160;8.210;2023-04-15T02:16:30;0.50;;;0.50;;
44784;SDS011;30507;53.160;8.210;2023-04-15T02:18:56;0.40;;;0.40;;
44784;SDS011;30507;53.160;8.210;2023-04-15T02:21:21;0.70;;;0.70;;
44784;SDS011;30507;53.160;8.210;2023-04-15T02:23:46;0.80;;;0.80;;
44784;SDS011;30507;53.160;8.210;2023-04-15T02:26:12;0.40;;;0.40;;
44784;SDS011;30507;53.160;8.210;2023-04-15T02:28:37;0.60;;;0.60;;
44784;SDS011;30507;53.160;8.210;2023-04-15T02:31:05;0.60;;;0.60;;
44784;SDS011;30507;53.160;8.210;2023-04-15T02:33:31;0.82;;;0.80;;
44784;SDS011;30507;53.160;8.210;2023-04-15T02:35:56;0.60;;;0.60;;
44784;SDS011;30507;53.160;8.210;2023-04-15T02:38:21;0.40;;;0.40;;
44784;SDS011;30507;53.160;8.210;2023-04-15T02:40:46;0.63;;;0.63;;
44784;SDS011;30507;53.160;8.210;2023-04-15T02:43:13;0.70;;;0.60;;
44784;SDS011;30507;53.160;8.210;2023-04-15T02:45:38;0.60;;;0.60;;
44784;SDS011;30507;53.160;8.210;2023-04-15T02:48:03;0.60;;;0.60;;
44784;SDS011;30507;53.160;8.210;2023-04-15T02:50:30;0.50;;;0.50;;
44784;SDS011;30507;53.160;8.210;2023-04-15T02:52:55;0.50;;;0.50;;
44784;SDS011;30507;53.160;8.210;2023-04-15T02:55:20;0.70;;;0.70;;
44784;SDS011;30507;53.160;8.210;2023-04-15T02:57:46;0.70;;;0.70;;
44784;SDS011;30507;53.160;8.210;2023-04-15T03:00:11;0.67;;;0.60;;
44784;SDS011;30507;53.160;8.210;2023-04-15T03:02:38;0.43;;;0.43;;
44784;SDS011;30507;53.160;8.210;2023-04-15T03:05:03;0.73;;;0.73;;
44784;SDS011;30507;53.160;8.210;2023-04-15T03:07:29;1.27;;;0.70;;
44784;SDS011;30507;53.160;8.210;2023-04-15T03:09:55;0.60;;;0.60;;
44784;SDS011;30507;53.160;8.210;2023-04-15T03:12:20;0.50;;;0.50;;
44784;SDS011;30507;53.160;8.210;2023-04-15T03:14:45;0.60;;;0.60;;
44784;SDS011;30507;53.160;8.210;2023-04-15T03:17:10;0.55;;;0.55;;
44784;SDS011;30507;53.160;8.210;2023-04-15T03:19:36;0.67;;;0.67;;
44784;SDS011;30507;53.160;8.210;2023-04-15T03:22:01;0.93;;;0.85;;
44784;SDS011;30507;53.160;8.210;2023-04-15T03:24:26;0.40;;;0.40;;
44784;SDS011;30507;53.160;8.210;2023-04-15T03:26:53;0.50;;;0.40;;
44784;SDS011;30507;53.160;8.210;2023-04-15T03:29:19;0.70;;;0.63;;
44784;SDS011;30507;53.160;8.210;2023-04-15T03:31:44;1.27;;;0.60;;
44784;SDS011;30507;53.160;8.210;2023-04-15T03:34:09;0.40;;;0.40;;
44784;SDS011;30507;53.160;8.210;2023-04-15T03:36:34;0.57;;;0.57;;
44784;SDS011;30507;53.160;8.210;2023-04-15T03:39:00;0.55;;;0.50;;
44784;SDS011;30507;53.160;8.210;2023-04-15T03:41:26;0.50;;;0.50;;
44784;SDS011;30507;53.160;8.210;2023-04-15T03:43:52;0.40;;;0.40;;
44784;SDS011;30507;53.160;8.210;2023-04-15T03:46:17;0.40;;;0.40;;
44784;SDS011;30507;53.160;8.210;2023-04-15T03:48:42;0.47;;;0.47;;
44784;SDS011;30507;53.160;8.210;2023-04-15T03:51:07;0.50;;;0.50;;
44784;SDS011;30507;53.160;8.210;2023-04-15T03:53:32;0.40;;;0.40;;
44784;SDS011;30507;53.160;8.210;2023-04-15T03:55:57;0.45;;;0.45;;
44784;SDS011;30507;53.160;8.210;2023-04-15T03:58:23;0.70;;;0.70;;
44784;SDS011;30507;53.160;8.210;2023-04-15T04:00:48;0.60;;;0.60;;
44784;SDS011;30507;53.160;8.210;2023-04-15T04:03:13;0.50;;;0.50;;
44784;SDS011;30507;53.160;8.210;2023-04-15T04:05:38;0.50;;;0.50;;
44784;SDS011;30507;53.160;8.210;2023-04-15T04:08:05;0.68;;;0.63;;
44784;SDS011;30507;53.160;8.210;2023-04-15T04:10:30;0.63;;;0.63;;
44784;SDS011;30507;53.160;8.210;2023-04-15T04:12:55;0.30;;;0.30;;
44784;SDS011;30507;53.160;8.210;2023-04-15T04:15:21;0.30;;;0.30;;
44784;SDS011;30507;53.160;8.210;2023-04-15T04:17:46;0.50;;;0.50;;
44784;SDS011;30507;53.160;8.210;2023-04-15T04:20:11;0.68;;;0.68;;
44784;SDS011;30507;53.160;8.210;2023-04-15T04:22:37;0.43;;;0.40;;
44784;SDS011;30507;53.160;8.210;2023-04-15T04:25:02;0.40;;;0.40;;
44784;SDS011;30507;53.160;8.210;2023-04-15T04:27:27;0.30;;;0.30;;
44784;SDS011;30507;53.160;8.210;2023-04-15T04:29:52;0.40;;;0.40;;
44784;SDS011;30507;53.160;8.210;2023-04-15T04:32:18;0.30;;;0.30;;
44784;SDS011;30507;53.160;8.210;2023-04-15T04:34:43;0.55;;;0.55;;
44784;SDS011;30507;53.160;8.210;2023-04-15T04:37:08;0.47;;;0.47;;
44784;SDS011;30507;53.160;8.210;2023-04-15T04:39:33;0.40;;;0.40;;
44784;SDS011;30507;53.160;8.210;2023-04-15T04:41:58;0.40;;;0.40;;
44784;SDS011;30507;53.160;8.210;2023-04-15T04:44:23;0.40;;;0.40;;
44784;SDS011;30507;53.160;8.210;2023-04-15T04:46:48;0.40;;;0.38;;
44784;SDS011;30507;53.160;8.210;2023-04-15T04:49:14;0.23;;;0.23;;
44784;SDS011;30507;53.160;8.210;2023-04-15T04:51:39;0.60;;;0.60;;
44784;SDS011;30507;53.160;8.210;2023-04-15T04:54:04;0.65;;;0.63;;
44784;SDS011;30507;53.160;8.210;2023-04-15T04:56:29;0.40;;;0.40;;
44784;SDS011;30507;53.160;8.210;2023-04-15T04:58:54;0.30;;;0.30;;
44784;SDS011;30507;53.160;8.210;2023-04-15T05:01:20;0.32;;;0.32;;
44784;SDS011;30507;53.160;8.210;2023-04-15T05:03:45;0.30;;;0.30;;
44784;SDS011;30507;53.160;8.210;2023-04-15T05:06:10;0.20;;;0.20;;
44784;SDS011;30507;53.160;8.210;2023-04-15T05:08:35;0.40;;;0.40;;
44784;SDS011;30507;53.160;8.210;2023-04-15T05:11:02;0.40;;;0.40;;
44784;SDS011;30507;53.160;8.210;2023-04-15T05:13:27;0.47;;;0.47;;
44784;SDS011;30507;53.160;8.210;2023-04-15T05:15:53;0.52;;;0.52;;
44784;SDS011;30507;53.160;8.210;2023-04-15T05:18:19;0.40;;;0.40;;
44784;SDS011;30507;53.160;8.210;2023-04-15T05:20:44;0.65;;;0.40;;
44784;SDS011;30507;53.160;8.210;2023-04-15T05:23:10;0.50;;;0.50;;
44784;SDS011;30507;53.160;8.210;2023-04-15T05:25:35;0.47;;;0.47;;
44784;SDS011;30507;53.160;8.210;2023-04-15T05:28:00;0.40;;;0.40;;
44784;SDS011;30507;53.160;8.210;2023-04-15T05:30:25;0.30;;;0.30;;
44784;SDS011;30507;53.160;8.210;2023-04-15T05:32:50;0.43;;;0.43;;
44784;SDS011;30507;53.160;8.210;2023-04-15T05:35:16;0.63;;;0.60;;
44784;SDS011;30507;53.160;8.210;2023-04-15T05:37:41;0.50;;;0.50;;
44784;SDS011;30507;53.160;8.210;2023-04-15T05:40:07;0.50;;;0.50;;
44784;SDS011;30507;53.160;8.210;2023-04-15T05:42:34;0.40;;;0.40;;
44784;SDS011;30507;53.160;8.210;2023-04-15T05:44:59;0.55;;;0.55;;
44784;SDS011;30507;53.160;8.210;2023-04-15T05:47:25;0.47;;;0.47;;
44784;SDS011;30507;53.160;8.210;2023-04-15T05:49:51;0.47;;;0.47;;
44784;SDS011;30507;53.160;8.210;2023-04-15T05:52:16;0.63;;;0.53;;
44784;SDS011;30507;53.160;8.210;2023-04-15T05:54:42;0.30;;;0.30;;
44784;SDS011;30507;53.160;8.210;2023-04-15T05:57:07;0.40;;;0.40;;
44784;SDS011;30507;53.160;8.210;2023-04-15T05:59:32;0.30;;;0.30;;
44784;SDS011;30507;53.160;8.210;2023-04-15T06:01:57;0.50;;;0.50;;
44784;SDS011;30507;53.160;8.210;2023-04-15T06:04:22;0.40;;;0.40;;
44784;SDS011;30507;53.160;8.210;2023-04-15T06:06:48;0.50;;;0.50;;
44784;SDS011;30507;53.160;8.210;2023-04-15T06:09:13;0.50;;;0.50;;
44784;SDS011;30507;53.160;8.210;2023-04-15T06:11:38;0.40;;;0.40;;
44784;SDS011;30507;53.160;8.210;2023-04-15T06:14:05;0.75;;;0.60;;
44784;SDS011;30507;53.160;8.210;2023-04-15T06:16:30;0.47;;;0.40;;
44784;SDS011;30507;53.160;8.210;2023-04-15T06:18:55;0.40;;;0.40;;
44784;SDS011;30507;53.160;8.210;2023-04-15T06:21:20;0.50;;;0.50;;
44784;SDS011;30507;53.160;8.210;2023-04-15T06:23:45;0.63;;;0.63;;
44784;SDS011;30507;53.160;8.210;2023-04-15T06:26:11;0.37;;;0.37;;
44784;SDS011;30507;53.160;8.210;2023-04-15T06:28:36;0.52;;;0.52;;
44784;SDS011;30507;53.160;8.210;2023-04-15T06:31:01;0.30;;;0.30;;
44784;SDS011;30507;53.160;8.210;2023-04-15T06:33:27;0.40;;;0.40;;
44784;SDS011;30507;53.160;8.210;2023-04-15T06:35:52;0.53;;;0.53;;
44784;SDS011;30507;53.160;8.210;2023-04-15T06:38:17;0.60;;;0.60;;
44784;SDS011;30507;53.160;8.210;2023-04-15T06:40:42;0.40;;;0.40;;
44784;SDS011;30507;53.160;8.210;2023-04-15T06:43:07;0.40;;;0.40;;
44784;SDS011;30507;53.160;8.210;2023-04-15T06:45:33;0.60;;;0.60;;
44784;SDS011;30507;53.160;8.210;2023-04-15T06:47:58;1.90;;;0.83;;
44784;SDS011;30507;53.160;8.210;2023-04-15T06:50:23;2.75;;;0.70;;
44784;SDS011;30507;53.160;8.210;2023-04-15T06:52:48;1.70;;;0.50;;
44784;SDS011;30507;53.160;8.210;2023-04-15T06:55:13;0.47;;;0.47;;
44784;SDS011;30507;53.160;8.210;2023-04-15T06:57:39;0.50;;;0.50;;
44784;SDS011;30507;53.160;8.210;2023-04-15T07:00:04;1.40;;;0.57;;
44784;SDS011;30507;53.160;8.210;2023-04-15T07:02:29;2.13;;;0.60;;
44784;SDS011;30507;53.160;8.210;2023-04-15T07:04:55;0.73;;;0.50;;
44784;SDS011;30507;53.160;8.210;2023-04-15T07:07:20;0.35;;;0.35;;
44784;SDS011;30507;53.160;8.210;2023-04-15T07:09:46;0.80;;;0.40;;
44784;SDS011;30507;53.160;8.210;2023-04-15T07:12:11;0.25;;;0.25;;
44784;SDS011;30507;53.160;8.210;2023-04-15T07:14:36;0.60;;;0.60;;
44784;SDS011;30507;53.160;8.210;2023-04-15T07:17:01;3.03;;;0.93;;
44784;SDS011;30507;53.160;8.210;2023-04-15T07:19:27;0.77;;;0.38;;
44784;SDS011;30507;53.160;8.210;2023-04-15T07:21:52;1.03;;;0.70;;
44784;SDS011;30507;53.160;8.210;2023-04-15T07:24:17;3.22;;;0.68;;
44784;SDS011;30507;53.160;8.210;2023-04-15T07:26:44;2.00;;;0.50;;
44784;SDS011;30507;53.160;8.210;2023-04-15T07:29:09;0.28;;;0.28;;
44784;SDS011;30507;53.160;8.210;2023-04-15T07:31:34;0.82;;;0.60;;
44784;SDS011;30507;53.160;8.210;2023-04-15T07:34:01;0.40;;;0.30;;
44784;SDS011;30507;53.160;8.210;2023-04-15T07:36:26;1.75;;;0.40;;
44784;SDS011;30507;53.160;8.210;2023-04-15T07:38:53;0.75;;;0.47;;
44784;SDS011;30507;53.160;8.210;2023-04-15T07:41:19;0.30;;;0.30;;
44784;SDS011;30507;53.160;8.210;2023-04-15T07:43:44;1.67;;;0.55;;
44784;SDS011;30507;53.160;8.210;2023-04-15T07:46:10;0.40;;;0.40;;
44784;SDS011;30507;53.160;8.210;2023-04-15T07:48:35;2.38;;;0.70;;
44784;SDS011;30507;53.160;8.210;2023-04-15T07:51:00;0.80;;;0.50;;
44784;SDS011;30507;53.160;8.210;2023-04-15T07:53:26;2.30;;;0.60;;
44784;SDS011;30507;53.160;8.210;2023-04-15T07:55:51;1.02;;;0.52;;
44784;SDS011;30507;53.160;8.210;2023-04-15T07:58:16;1.33;;;1.23;;
44784;SDS011;30507;53.160;8.210;2023-04-15T08:00:42;3.08;;;0.60;;
44784;SDS011;30507;53.160;8.210;2023-04-15T08:03:07;2.07;;;0.80;;
44784;SDS011;30507;53.160;8.210;2023-04-15T08:05:32;1.70;;;0.90;;
44784;SDS011;30507;53.160;8.210;2023-04-15T08:07:57;1.70;;;0.70;;
44784;SDS011;30507;53.160;8.210;2023-04-15T08:10:22;2.03;;;0.90;;
44784;SDS011;30507;53.160;8.210;2023-04-15T08:12:47;1.00;;;0.87;;
44784;SDS011;30507;53.160;8.210;2023-04-15T08:15:13;0.30;;;0.30;;
44784;SDS011;30507;53.160;8.210;2023-04-15T08:17:38;7.53;;;0.80;;
44784;SDS011;30507;53.160;8.210;2023-04-15T08:20:04;0.43;;;0.40;;
44784;SDS011;30507;53.160;8.210;2023-04-15T08:22:29;1.00;;;0.60;;
44784;SDS011;30507;53.160;8.210;2023-04-15T08:24:55;1.90;;;0.60;;
44784;SDS011;30507;53.160;8.210;2023-04-15T08:27:20;0.40;;;0.40;;
44784;SDS011;30507;53.160;8.210;2023-04-15T08:29:45;1.80;;;0.50;;
44784;SDS011;30507;53.160;8.210;2023-04-15T08:32:11;0.63;;;0.38;;
44784;SDS011;30507;53.160;8.210;2023-04-15T08:34:36;0.97;;;0.40;;
44784;SDS011;30507;53.160;8.210;2023-04-15T08:37:01;0.60;;;0.50;;
44784;SDS011;30507;53.160;8.210;2023-04-15T08:39:26;0.52;;;0.43;;
44784;SDS011;30507;53.160;8.210;2023-04-15T08:41:55;0.50;;;0.50;;
44784;SDS011;30507;53.160;8.210;2023-04-15T08:44:23;0.65;;;0.40;;
44784;SDS011;30507;53.160;8.210;2023-04-15T08:46:49;0.60;;;0.40;;
44784;SDS011;30507;53.160;8.210;2023-04-15T08:49:15;0.50;;;0.32;;
44784;SDS011;30507;53.160;8.210;2023-04-15T08:51:41;0.70;;;0.43;;
44784;SDS011;30507;53.160;8.210;2023-04-15T08:54:07;1.13;;;0.65;;
44784;SDS011;30507;53.160;8.210;2023-04-15T08:56:32;0.30;;;0.30;;
44784;SDS011;30507;53.160;8.210;2023-04-15T08:58:58;0.60;;;0.28;;
44784;SDS011;30507;53.160;8.210;2023-04-15T09:01:24;1.48;;;0.60;;
44784;SDS011;30507;53.160;8.210;2023-04-15T09:03:49;0.85;;;0.22;;
44784;SDS011;30507;53.160;8.210;2023-04-15T09:06:15;0.47;;;0.30;;
44784;SDS011;30507;53.160;8.210;2023-04-15T09:08:41;1.40;;;0.60;;
44784;SDS011;30507;53.160;8.210;2023-04-15T09:11:06;0.50;;;0.50;;
44784;SDS011;30507;53.160;8.210;2023-04-15T09:13:31;0.30;;;0.30;;
44784;SDS011;30507;53.160;8.210;2023-04-15T09:15:56;0.30;;;0.30;;
44784;SDS011;30507;53.160;8.210;2023-04-15T09:18:35;0.55;;;0.30;;
44784;SDS011;30507;53.160;8.210;2023-04-15T09:21:13;0.40;;;0.40;;
44784;SDS011;30507;53.160;8.210;2023-04-15T09:23:40;0.30;;;0.30;;
44784;SDS011;30507;53.160;8.210;2023-04-15T09:26:05;0.13;;;0.13;;
44784;SDS011;30507;53.160;8.210;2023-04-15T09:28:31;1.10;;;0.65;;
44784;SDS011;30507;53.160;8.210;2023-04-15T09:30:57;0.63;;;0.50;;
44784;SDS011;30507;53.160;8.210;2023-04-15T09:33:23;0.68;;;0.30;;
44784;SDS011;30507;53.160;8.210;2023-04-15T09:35:55;0.40;;;0.20;;
44784;SDS011;30507;53.160;8.210;2023-04-15T09:38:21;0.30;;;0.30;;
44784;SDS011;30507;53.160;8.210;2023-04-15T09:40:47;0.63;;;0.30;;
44784;SDS011;30507;53.160;8.210;2023-04-15T09:43:12;0.75;;;0.40;;
44784;SDS011;30507;53.160;8.210;2023-04-15T09:45:37;1.13;;;0.22;;
44784;SDS011;30507;53.160;8.210;2023-04-15T09:48:18;1.05;;;0.38;;
44784;SDS011;30507;53.160;8.210;2023-04-15T09:50:45;0.47;;;0.32;;
44784;SDS011;30507;53.160;8.210;2023-04-15T09:53:10;0.90;;;0.90;;
44784;SDS011;30507;53.160;8.210;2023-04-15T09:55:39;0.90;;;0.65;;
44784;SDS011;30507;53.160;8.210;2023-04-15T09:58:07;0.50;;;0.30;;
44784;SDS011;30507;53.160;8.210;2023-04-15T10:00:33;0.30;;;0.30;;
44784;SDS011;30507;53.160;8.210;2023-04-15T10:02:58;0.10;;;0.10;;
44784;SDS011;30507;53.160;8.210;2023-04-15T10:05:23;0.53;;;0.20;;
44784;SDS011;30507;53.160;8.210;2023-04-15T10:07:49;0.30;;;0.30;;
44784;SDS011;30507;53.160;8.210;2023-04-15T10:10:14;0.60;;;0.30;;
44784;SDS011;30507;53.160;8.210;2023-04-15T10:12:40;0.40;;;0.30;;
44784;SDS011;30507;53.160;8.210;2023-04-15T10:15:06;0.57;;;0.38;;
44784;SDS011;30507;53.160;8.210;2023-04-15T10:17:36;0.32;;;0.32;;
44784;SDS011;30507;53.160;8.210;2023-04-15T10:20:03;0.25;;;0.25;;
44784;SDS011;30507;53.160;8.210;2023-04-15T10:22:28;0.20;;;0.20;;
44784;SDS011;30507;53.160;8.210;2023-04-15T10:24:55;0.40;;;0.27;;
44784;SDS011;30507;53.160;8.210;2023-04-15T10:27:20;0.25;;;0.22;;
44784;SDS011;30507;53.160;8.210;2023-04-15T10:29:46;0.20;;;0.20;;
44784;SDS011;30507;53.160;8.210;2023-04-15T10:32:11;0.68;;;0.30;;
44784;SDS011;30507;53.160;8.210;2023-04-15T10:34:37;0.32;;;0.30;;
44784;SDS011;30507;53.160;8.210;2023-04-15T10:37:02;0.33;;;0.33;;
44784;SDS011;30507;53.160;8.210;2023-04-15T10:39:37;0.20;;;0.20;;
44784;SDS011;30507;53.160;8.210;2023-04-15T10:44:31;0.30;;;0.30;;
44784;SDS011;30507;53.160;8.210;2023-04-15T10:46:56;0.73;;;0.20;;
44784;SDS011;30507;53.160;8.210;2023-04-15T10:49:25;0.10;;;0.10;;
44784;SDS011;30507;53.160;8.210;2023-04-15T10:51:51;0.28;;;0.28;;
44784;SDS011;30507;53.160;8.210;2023-04-15T10:56:49;1.75;;;0.20;;
44784;SDS011;30507;53.160;8.210;2023-04-15T10:59:15;0.10;;;0.10;;
44784;SDS011;30507;53.160;8.210;2023-04-15T11:01:56;0.40;;;0.30;;
44784;SDS011;30507;53.160;8.210;2023-04-15T11:07:10;1.20;;;0.73;;
44784;SDS011;30507;53.160;8.210;2023-04-15T11:09:35;0.30;;;0.20;;
44784;SDS011;30507;53.160;8.210;2023-04-15T11:12:07;0.10;;;0.10;;
44784;SDS011;30507;53.160;8.210;2023-04-15T11:14:36;0.55;;;0.40;;
44784;SDS011;30507;53.160;8.210;2023-04-15T11:17:03;0.50;;;0.38;;
44784;SDS011;30507;53.160;8.210;2023-04-15T11:19:34;1.30;;;0.40;;
44784;SDS011;30507;53.160;8.210;2023-04-15T11:22:05;0.45;;;0.35;;
44784;SDS011;30507;53.160;8.210;2023-04-15T11:24:31;1.98;;;0.80;;
44784;SDS011;30507;53.160;8.210;2023-04-15T11:26:56;1.58;;;0.85;;
44784;SDS011;30507;53.160;8.210;2023-04-15T11:29:22;2.30;;;1.52;;
44784;SDS011;30507;53.160;8.210;2023-04-15T11:31:52;1.40;;;1.00;;
44784;SDS011;30507;53.160;8.210;2023-04-15T11:34:24;3.63;;;1.70;;
44784;SDS011;30507;53.160;8.210;2023-04-15T11:36:49;1.85;;;1.63;;
44784;SDS011;30507;53.160;8.210;2023-04-15T11:39:15;7.75;;;1.83;;
44784;SDS011;30507;53.160;8.210;2023-04-15T11:41:40;3.80;;;2.30;;
44784;SDS011;30507;53.160;8.210;2023-04-15T11:44:16;2.35;;;1.50;;
44784;SDS011;30507;53.160;8.210;2023-04-15T11:46:42;4.43;;;1.70;;
44784;SDS011;30507;53.160;8.210;2023-04-15T11:49:07;5.70;;;2.37;;
44784;SDS011;30507;53.160;8.210;2023-04-15T11:51:32;6.47;;;2.20;;
44784;SDS011;30507;53.160;8.210;2023-04-15T11:53:58;3.47;;;2.72;;
44784;SDS011;30507;53.160;8.210;2023-04-15T11:56:24;2.77;;;1.93;;
44784;SDS011;30507;53.160;8.210;2023-04-15T11:58:53;3.03;;;2.55;;
44784;SDS011;30507;53.160;8.210;2023-04-15T12:01:20;4.05;;;1.80;;
44784;SDS011;30507;53.160;8.210;2023-04-15T12:03:54;2.40;;;2.20;;
44784;SDS011;30507;53.160;8.210;2023-04-15T12:06:21;3.70;;;2.35;;
44784;SDS011;30507;53.160;8.210;2023-04-15T12:11:37;3.10;;;2.30;;
44784;SDS011;30507;53.160;8.210;2023-04-15T12:16:41;3.80;;;2.00;;
44784;SDS011;30507;53.160;8.210;2023-04-15T12:19:08;3.00;;;1.98;;
44784;SDS011;30507;53.160;8.210;2023-04-15T12:21:34;3.50;;;1.50;;
44784;SDS011;30507;53.160;8.210;2023-04-15T12:24:03;2.70;;;1.88;;
44784;SDS011;30507;53.160;8.210;2023-04-15T12:29:04;2.20;;;2.00;;
44784;SDS011;30507;53.160;8.210;2023-04-15T12:31:29;2.28;;;1.60;;
44784;SDS011;30507;53.160;8.210;2023-04-15T12:33:55;3.60;;;2.27;;
44784;SDS011;30507;53.160;8.210;2023-04-15T12:36:20;3.65;;;2.40;;
44784;SDS011;30507;53.160;8.210;2023-04-15T12:38:45;3.38;;;2.47;;
44784;SDS011;30507;53.160;8.210;2023-04-15T12:41:11;3.00;;;1.80;;
44784;SDS011;30507;53.160;8.210;2023-04-15T12:43:36;2.90;;;1.30;;
44784;SDS011;30507;53.160;8.210;2023-04-15T12:46:01;2.75;;;1.75;;
44784;SDS011;30507;53.160;8.210;2023-04-15T12:48:26;4.93;;;2.40;;
44784;SDS011;30507;53.160;8.210;2023-04-15T12:50:51;2.13;;;1.50;;
44784;SDS011;30507;53.160;8.210;2023-04-15T12:53:17;3.55;;;1.77;;
44784;SDS011;30507;53.160;8.210;2023-04-15T12:55:42;4.03;;;2.53;;
44784;SDS011;30507;53.160;8.210;2023-04-15T12:58:07;2.90;;;2.20;;
44784;SDS011;30507;53.160;8.210;2023-04-15T13:00:33;4.07;;;1.67;;
44784;SDS011;30507;53.160;8.210;2023-04-15T13:02:58;3.25;;;2.30;;
44784;SDS011;30507;53.160;8.210;2023-04-15T13:05:23;2.42;;;1.77;;
44784;SDS011;30507;53.160;8.210;2023-04-15T13:07:48;5.57;;;2.47;;
44784;SDS011;30507;53.160;8.210;2023-04-15T13:10:14;3.30;;;2.28;;
44784;SDS011;30507;53.160;8.210;2023-04-15T13:12:39;3.27;;;2.03;;
44784;SDS011;30507;53.160;8.210;2023-04-15T13:15:05;4.10;;;2.67;;
44784;SDS011;30507;53.160;8.210;2023-04-15T13:17:31;3.75;;;2.10;;
44784;SDS011;30507;53.160;8.210;2023-04-15T13:19:56;2.87;;;1.70;;
44784;SDS011;30507;53.160;8.210;2023-04-15T13:22:21;2.13;;;1.60;;
44784;SDS011;30507;53.160;8.210;2023-04-15T13:24:46;4.45;;;1.70;;
44784;SDS011;30507;53.160;8.210;2023-04-15T13:27:11;5.20;;;2.73;;
44784;SDS011;30507;53.160;8.210;2023-04-15T13:29:37;2.50;;;1.57;;
44784;SDS011;30507;53.160;8.210;2023-04-15T13:32:04;3.28;;;2.22;;
44784;SDS011;30507;53.160;8.210;2023-04-15T13:34:29;2.33;;;1.70;;
44784;SDS011;30507;53.160;8.210;2023-04-15T13:36:54;1.87;;;1.57;;
44784;SDS011;30507;53.160;8.210;2023-04-15T13:39:20;3.03;;;2.17;;
44784;SDS011;30507;53.160;8.210;2023-04-15T13:41:45;3.47;;;2.33;;
44784;SDS011;30507;53.160;8.210;2023-04-15T13:44:12;2.63;;;2.05;;
44784;SDS011;30507;53.160;8.210;2023-04-15T13:46:37;3.97;;;2.38;;
44784;SDS011;30507;53.160;8.210;2023-04-15T13:49:04;6.15;;;2.75;;
44784;SDS011;30507;53.160;8.210;2023-04-15T13:51:30;9.98;;;2.28;;
44784;SDS011;30507;53.160;8.210;2023-04-15T13:53:55;3.40;;;2.20;;
44784;SDS011;30507;53.160;8.210;2023-04-15T13:56:22;2.85;;;2.30;;
44784;SDS011;30507;53.160;8.210;2023-04-15T13:58:47;3.15;;;2.00;;
44784;SDS011;30507;53.160;8.210;2023-04-15T14:01:12;3.03;;;1.90;;
44784;SDS011;30507;53.160;8.210;2023-04-15T14:03:37;2.37;;;1.83;;
44784;SDS011;30507;53.160;8.210;2023-04-15T14:06:03;4.68;;;2.22;;
44784;SDS011;30507;53.160;8.210;2023-04-15T14:08:28;4.40;;;2.13;;
44784;SDS011;30507;53.160;8.210;2023-04-15T14:10:53;3.67;;;2.17;;
44784;SDS011;30507;53.160;8.210;2023-04-15T14:13:19;2.75;;;1.95;;
44784;SDS011;30507;53.160;8.210;2023-04-15T14:15:44;4.93;;;2.15;;
44784;SDS011;30507;53.160;8.210;2023-04-15T14:18:09;2.83;;;1.87;;
44784;SDS011;30507;53.160;8.210;2023-04-15T14:20:34;3.92;;;2.85;;
44784;SDS011;30507;53.160;8.210;2023-04-15T14:22:59;2.60;;;1.80;;
44784;SDS011;30507;53.160;8.210;2023-04-15T14:25:25;2.42;;;2.05;;
44784;SDS011;30507;53.160;8.210;2023-04-15T14:27:50;2.95;;;1.85;;
44784;SDS011;30507;53.160;8.210;2023-04-15T14:30:16;4.68;;;2.08;;
44784;SDS011;30507;53.160;8.210;2023-04-15T14:32:41;1.93;;;1.57;;
44784;SDS011;30507;53.160;8.210;2023-04-15T14:35:06;4.32;;;1.88;;
44784;SDS011;30507;53.160;8.210;2023-04-15T14:37:31;2.37;;;1.80;;
44784;SDS011;30507;53.160;8.210;2023-04-15T14:39:57;3.33;;;1.77;;
44784;SDS011;30507;53.160;8.210;2023-04-15T14:42:22;2.15;;;1.70;;
44784;SDS011;30507;53.160;8.210;2023-04-15T14:44:47;1.70;;;1.52;;
44784;SDS011;30507;53.160;8.210;2023-04-15T14:47:12;2.27;;;2.07;;
44784;SDS011;30507;53.160;8.210;2023-04-15T14:49:37;1.90;;;1.70;;
44784;SDS011;30507;53.160;8.210;2023-04-15T14:52:02;2.87;;;2.07;;
44784;SDS011;30507;53.160;8.210;2023-04-15T14:54:28;3.90;;;2.03;;